Terminal Aerodrome Forecast
Issued by NWS

Home | Current Version | Previous Version | Text Only | Print | Product List | Glossary On
Versions: 1 2 3 4 5 6 7 8 9 10 11 12 13 14 15 16 17 18 19 20 21 22 23 24 25 26 27 28 29 30 31 32 33 34
000
FTUS43 KDMX 290520
TAFFOD
TAF
KFOD 290520Z 2906/3006 15007KT P6SM -TSRA SCT025 BKN040CB
     FM290900 18009KT 4SM BR OVC009
     FM291500 20008KT P6SM SCT010 BKN120
     FM291800 20006KT P6SM VCSH BKN050
     FM300000 26005KT P6SM SCT050 BKN150=

USA.gov is the U.S. government's official web portal to all federal, state and local government web resources and services.